createdAt,value
2018-11-14T00:00:44.325Z,0.00
2018-11-14T00:01:43.980Z,0.00
2018-11-14T00:02:44.247Z,0.00
2018-11-14T00:03:44.668Z,0.00
2018-11-14T00:04:43.947Z,0.00
2018-11-14T00:05:43.940Z,0.00
2018-11-14T00:06:44.030Z,0.00
2018-11-14T00:07:43.914Z,0.00
2018-11-14T00:08:43.904Z,0.00
2018-11-14T00:09:44.267Z,0.00
2018-11-14T00:10:43.886Z,0.00
2018-11-14T00:11:43.870Z,0.00
2018-11-14T00:12:43.933Z,0.00
2018-11-14T00:13:43.861Z,0.00
2018-11-14T00:14:43.841Z,0.00
2018-11-14T00:15:43.863Z,0.00
2018-11-14T00:16:44.108Z,0.00
2018-11-14T00:17:43.807Z,0.00
2018-11-14T00:18:43.879Z,0.00
2018-11-14T00:19:43.786Z,0.00
2018-11-14T00:20:43.783Z,0.00
2018-11-14T00:21:43.798Z,0.00
2018-11-14T00:22:43.756Z,0.00
2018-11-14T00:23:44.049Z,0.00
2018-11-14T00:24:44.678Z,0.00
2018-11-14T00:25:43.722Z,0.00
2018-11-14T00:26:43.773Z,0.00
2018-11-14T00:27:43.752Z,0.00
2018-11-14T00:28:43.692Z,0.00
2018-11-14T00:29:43.683Z,0.00
2018-11-14T00:30:44.034Z,0.00
2018-11-14T00:31:43.668Z,0.00
2018-11-14T00:32:43.648Z,0.00
2018-11-14T00:33:43.645Z,0.00
2018-11-14T00:34:43.685Z,0.00
2018-11-14T00:35:43.646Z,0.00
2018-11-14T00:36:43.674Z,0.00
2018-11-14T00:37:43.870Z,0.00
2018-11-14T00:38:43.583Z,0.00
2018-11-14T00:39:43.575Z,0.00
2018-11-14T00:40:43.564Z,0.00
2018-11-14T00:41:43.551Z,0.00
2018-11-14T00:42:43.783Z,0.00
2018-11-14T00:43:43.529Z,0.00
2018-11-14T00:44:43.804Z,0.00
2018-11-14T00:45:43.507Z,0.00
2018-11-14T00:46:43.496Z,0.00
2018-11-14T00:47:43.485Z,0.00
2018-11-14T00:48:43.544Z,0.00
2018-11-14T00:49:43.465Z,0.00
2018-11-14T00:50:43.451Z,0.00
2018-11-14T00:51:43.725Z,0.00
2018-11-14T00:52:43.433Z,0.00
2018-11-14T00:53:43.422Z,0.00
2018-11-14T00:54:43.487Z,0.00
2018-11-14T00:55:43.400Z,0.00
2018-11-14T00:56:43.388Z,0.00
2018-11-14T00:57:43.384Z,0.00
2018-11-14T00:58:43.643Z,0.00
2018-11-14T00:59:43.359Z,0.00
2018-11-14T01:00:43.425Z,0.00
2018-11-14T01:01:43.428Z,0.00
2018-11-14T01:02:43.326Z,0.00
2018-11-14T01:03:43.313Z,0.00
2018-11-14T01:04:43.303Z,0.00
2018-11-14T01:05:43.595Z,0.00
2018-11-14T01:06:43.351Z,0.00
2018-11-14T01:07:43.271Z,0.00
2018-11-14T01:08:43.267Z,0.00
2018-11-14T01:09:43.250Z,0.00
2018-11-14T01:10:43.237Z,0.00
2018-11-14T01:11:43.228Z,0.00
2018-11-14T01:12:43.592Z,0.00
2018-11-14T01:13:43.212Z,0.00
2018-11-14T01:14:43.194Z,0.00
2018-11-14T01:15:43.188Z,0.00
2018-11-14T01:16:43.172Z,0.00
2018-11-14T01:17:43.164Z,0.00
2018-11-14T01:18:43.249Z,0.00
2018-11-14T01:19:43.435Z,0.00
2018-11-14T01:20:43.131Z,0.00
2018-11-14T01:21:43.133Z,0.00
2018-11-14T01:22:43.112Z,0.00
2018-11-14T01:23:43.143Z,0.00
2018-11-14T01:24:43.156Z,0.00
2018-11-14T01:25:43.080Z,0.00
2018-11-14T01:26:43.066Z,0.00
2018-11-14T01:27:43.061Z,0.00
2018-11-14T01:28:43.049Z,0.00
2018-11-14T01:29:43.032Z,0.00
2018-11-14T01:30:43.090Z,0.00
2018-11-14T01:31:43.011Z,0.00
2018-11-14T01:32:43.285Z,0.00
2018-11-14T01:33:42.987Z,0.00
2018-11-14T01:34:42.977Z,0.00
2018-11-14T01:35:43.046Z,0.00
2018-11-14T01:36:43.446Z,0.00
2018-11-14T01:37:42.943Z,0.00
2018-11-14T01:38:42.933Z,0.00
2018-11-14T01:39:42.922Z,0.00
2018-11-14T01:40:42.919Z,0.00
2018-11-14T01:41:42.905Z,0.00
2018-11-14T01:42:42.955Z,0.00
2018-11-14T01:43:42.878Z,0.00
2018-11-14T01:44:43.167Z,0.00
2018-11-14T01:45:42.858Z,0.00
2018-11-14T01:46:42.847Z,0.00
2018-11-14T01:47:42.837Z,0.00
2018-11-14T01:48:42.898Z,0.00
2018-11-14T01:49:42.812Z,0.00
2018-11-14T01:50:42.802Z,0.00
2018-11-14T01:51:42.792Z,0.00
2018-11-14T01:52:42.780Z,0.00
2018-11-14T01:53:42.768Z,0.00
2018-11-14T01:54:43.000Z,0.00
2018-11-14T01:55:42.748Z,0.00
2018-11-14T01:56:42.737Z,0.00
2018-11-14T01:57:42.728Z,0.00
2018-11-14T01:58:42.715Z,0.00
2018-11-14T01:59:42.709Z,0.00
2018-11-14T02:00:42.762Z,0.00
2018-11-14T02:01:42.682Z,0.00
2018-11-14T02:02:42.948Z,0.00
2018-11-14T02:03:42.660Z,0.00
2018-11-14T02:04:42.650Z,0.00
2018-11-14T02:05:42.638Z,0.00
2018-11-14T02:06:42.700Z,0.00
2018-11-14T02:07:42.618Z,0.00
2018-11-14T02:08:42.612Z,0.00
2018-11-14T02:09:42.874Z,0.00
2018-11-14T02:10:42.585Z,0.00
2018-11-14T02:11:42.575Z,0.00
2018-11-14T02:12:42.667Z,0.00
2018-11-14T02:13:42.551Z,0.00
2018-11-14T02:14:42.541Z,0.00
2018-11-14T02:15:42.530Z,0.00
2018-11-14T02:16:42.800Z,0.00
2018-11-14T02:17:42.508Z,0.00
2018-11-14T02:18:42.568Z,0.00
2018-11-14T02:19:42.488Z,0.00
2018-11-14T02:20:42.475Z,0.00
2018-11-14T02:21:42.465Z,0.00
2018-11-14T02:22:42.453Z,0.00
2018-11-14T02:23:42.739Z,0.00
2018-11-14T02:24:42.509Z,0.00
2018-11-14T02:25:42.421Z,0.00
2018-11-14T02:26:42.414Z,0.00
2018-11-14T02:27:42.399Z,0.00
2018-11-14T02:28:42.391Z,0.00
2018-11-14T02:29:42.378Z,0.00
2018-11-14T02:30:42.981Z,0.00
2018-11-14T02:31:42.356Z,0.00
2018-11-14T02:32:42.346Z,0.00
2018-11-14T02:33:42.334Z,0.00
2018-11-14T02:34:42.325Z,0.00
2018-11-14T02:35:42.315Z,0.00
2018-11-14T02:36:42.376Z,0.00
2018-11-14T02:37:42.617Z,0.00
2018-11-14T02:38:42.280Z,0.00
2018-11-14T02:39:42.312Z,0.00
2018-11-14T02:40:42.259Z,0.00
2018-11-14T02:41:42.248Z,0.00
2018-11-14T02:42:42.309Z,0.00
2018-11-14T02:43:42.231Z,0.00
2018-11-14T02:44:42.504Z,0.00
2018-11-14T02:45:42.212Z,0.00
2018-11-14T02:46:42.195Z,0.00
2018-11-14T02:47:42.186Z,0.00
2018-11-14T02:48:42.494Z,0.00
2018-11-14T02:49:42.161Z,0.00
2018-11-14T02:50:42.150Z,0.00
2018-11-14T02:51:42.446Z,0.00
2018-11-14T02:52:42.191Z,0.00
2018-11-14T02:53:42.119Z,0.00
2018-11-14T02:54:43.147Z,0.00
2018-11-14T02:55:42.101Z,0.00
2018-11-14T02:56:42.086Z,0.00
2018-11-14T02:57:42.645Z,0.00
2018-11-14T02:58:42.365Z,0.00
2018-11-14T02:59:42.055Z,0.00
2018-11-14T03:02:19.681Z,0.00
2018-11-14T03:03:19.509Z,0.00
2018-11-14T03:04:19.493Z,0.00
2018-11-14T03:05:19.482Z,0.00
2018-11-14T03:06:19.471Z,0.00
2018-11-14T03:07:19.464Z,0.00
2018-11-14T03:08:20.499Z,0.00
2018-11-14T03:09:19.441Z,0.00
2018-11-14T03:10:19.529Z,0.00
2018-11-14T03:11:19.443Z,0.00
2018-11-14T03:12:19.453Z,0.00
2018-11-14T03:13:19.398Z,0.00
2018-11-14T03:14:19.427Z,0.00
2018-11-14T03:15:19.650Z,0.00
2018-11-14T03:16:19.362Z,0.00
2018-11-14T03:17:19.354Z,0.00
2018-11-14T03:18:19.351Z,0.00
2018-11-14T03:19:19.337Z,0.00
2018-11-14T03:20:19.613Z,0.00
2018-11-14T03:21:19.328Z,0.00
2018-11-14T03:22:19.589Z,0.00
2018-11-14T03:23:19.292Z,0.00
2018-11-14T03:24:19.289Z,0.00
2018-11-14T03:25:19.270Z,0.00
2018-11-14T03:26:19.303Z,0.00
2018-11-14T03:27:19.252Z,0.00
2018-11-14T03:28:19.260Z,0.00
2018-11-14T03:29:19.555Z,0.00
2018-11-14T03:30:19.235Z,0.00
2018-11-14T03:31:19.211Z,0.00
2018-11-14T03:32:19.252Z,0.00
2018-11-14T03:33:19.187Z,0.00
2018-11-14T03:34:19.178Z,0.00
2018-11-14T03:35:19.169Z,0.00
2018-11-14T03:36:19.465Z,0.00
2018-11-14T03:37:19.142Z,0.00
2018-11-14T03:38:19.200Z,0.00
2018-11-14T03:39:19.123Z,0.00
2018-11-14T03:40:19.125Z,0.00
2018-11-14T03:41:19.108Z,0.00
2018-11-14T03:42:19.100Z,0.00
2018-11-14T03:43:19.408Z,0.00
2018-11-14T03:44:19.119Z,0.00
2018-11-14T03:45:19.058Z,0.00
2018-11-14T03:46:19.050Z,0.00
2018-11-14T03:47:19.038Z,0.00
2018-11-14T03:48:19.029Z,0.00
2018-11-14T03:49:19.017Z,0.00
2018-11-14T03:50:19.341Z,0.00
2018-11-14T03:51:18.993Z,0.00
2018-11-14T03:52:18.982Z,0.00
2018-11-14T03:53:18.970Z,0.00
2018-11-14T03:54:18.962Z,0.00
2018-11-14T03:55:19.535Z,0.00
2018-11-14T03:56:19.118Z,0.00
2018-11-14T03:57:18.925Z,0.00
2018-11-14T03:58:20.614Z,0.00
2018-11-14T03:59:18.897Z,0.00
2018-11-14T04:00:18.982Z,0.00
2018-11-14T04:01:18.886Z,0.00
2018-11-14T04:02:18.906Z,0.00
2018-11-14T04:03:18.855Z,0.00
2018-11-14T04:04:18.859Z,0.00
2018-11-14T04:05:18.888Z,0.00
2018-11-14T04:06:18.829Z,0.00
2018-11-14T04:07:18.818Z,0.00
2018-11-14T04:08:18.856Z,0.00
2018-11-14T04:09:18.842Z,0.00
2018-11-14T04:10:18.786Z,0.00
2018-11-14T04:11:18.778Z,0.00
2018-11-14T04:12:18.764Z,0.00
2018-11-14T04:13:18.754Z,0.00
2018-11-14T04:14:19.329Z,0.00
2018-11-14T04:15:18.726Z,0.00
2018-11-14T04:16:18.720Z,0.00
2018-11-14T04:17:18.715Z,0.00
2018-11-14T04:18:18.705Z,0.00
2018-11-14T04:19:18.691Z,0.00
2018-11-14T04:20:18.724Z,0.00
2018-11-14T04:21:18.954Z,0.00
2018-11-14T04:22:18.658Z,0.00
2018-11-14T04:23:18.639Z,0.00
2018-11-14T04:24:18.636Z,0.00
2018-11-14T04:25:18.621Z,0.00
2018-11-14T04:26:18.654Z,0.00
2018-11-14T04:27:18.604Z,0.00
2018-11-14T04:28:18.902Z,0.00
2018-11-14T04:29:18.580Z,0.00
2018-11-14T04:30:18.571Z,0.00
2018-11-14T04:31:18.556Z,0.00
2018-11-14T04:32:18.598Z,0.00
2018-11-14T04:33:18.535Z,0.00
2018-11-14T04:34:18.530Z,0.00
2018-11-14T04:35:18.824Z,0.00
2018-11-14T04:36:18.503Z,0.00
2018-11-14T04:37:18.498Z,0.00
2018-11-14T04:38:18.525Z,0.00
2018-11-14T04:39:18.472Z,0.00
2018-11-14T04:40:18.463Z,0.00
2018-11-14T04:41:18.471Z,0.00
2018-11-14T04:42:18.908Z,0.00
2018-11-14T04:43:18.436Z,0.00
2018-11-14T04:44:18.574Z,0.00
2018-11-14T04:45:18.407Z,0.00
2018-11-14T04:46:18.396Z,0.00
2018-11-14T04:47:18.392Z,0.00
2018-11-14T04:48:18.447Z,0.00
2018-11-14T04:49:18.660Z,0.00
2018-11-14T04:50:18.433Z,0.00
2018-11-14T04:51:18.348Z,0.00
2018-11-14T04:52:18.331Z,0.00
2018-11-14T04:53:18.321Z,0.00
2018-11-14T04:54:18.318Z,0.00
2018-11-14T04:55:18.299Z,0.00
2018-11-14T04:57:33.652Z,0.00
2018-11-14T04:58:33.312Z,0.00
2018-11-14T04:59:33.307Z,0.00
2018-11-14T05:00:33.292Z,0.00
2018-11-14T05:01:33.281Z,0.00
2018-11-14T05:02:33.302Z,0.00
2018-11-14T05:03:33.328Z,0.00
2018-11-14T05:04:33.250Z,0.00
2018-11-14T05:05:33.238Z,0.00
2018-11-14T05:06:33.232Z,0.00
2018-11-14T05:07:33.218Z,0.00
2018-11-14T05:08:33.209Z,0.00
2018-11-14T05:09:33.682Z,0.00
2018-11-14T05:10:33.186Z,0.00
2018-11-14T05:11:33.175Z,0.00
2018-11-14T05:12:33.168Z,0.00
2018-11-14T05:13:33.155Z,0.00
2018-11-14T05:14:33.145Z,0.00
2018-11-14T05:15:33.234Z,0.00
2018-11-14T05:16:33.416Z,0.00
2018-11-14T05:17:33.115Z,0.00
2018-11-14T05:18:33.109Z,0.00
2018-11-14T05:19:33.093Z,0.00
2018-11-14T05:20:33.085Z,0.00
2018-11-14T05:21:33.143Z,0.00
2018-11-14T05:22:33.069Z,0.00
2018-11-14T05:23:33.328Z,0.00
2018-11-14T05:24:33.093Z,0.00
2018-11-14T05:25:33.038Z,0.00
2018-11-14T05:26:33.019Z,0.00
2018-11-14T05:27:33.082Z,0.00
2018-11-14T05:28:33.004Z,0.00
2018-11-14T05:29:32.990Z,0.00
2018-11-14T05:30:33.254Z,0.00
2018-11-14T05:31:32.970Z,0.00
2018-11-14T05:32:32.957Z,0.00
2018-11-14T05:33:33.035Z,0.00
2018-11-14T05:34:32.939Z,0.00
2018-11-14T05:35:32.924Z,0.00
2018-11-14T05:36:32.919Z,0.00
2018-11-14T05:37:33.181Z,0.00
2018-11-14T05:38:32.893Z,0.00
2018-11-14T05:39:32.974Z,0.00
2018-11-14T05:40:32.869Z,0.00
2018-11-14T05:41:32.860Z,0.00
2018-11-14T05:42:34.194Z,0.00
2018-11-14T05:43:32.843Z,0.00
2018-11-14T05:44:33.250Z,0.00
2018-11-14T05:45:32.999Z,0.00
2018-11-14T05:46:32.806Z,0.00
2018-11-14T05:47:32.839Z,0.00
2018-11-14T05:48:32.851Z,0.00
2018-11-14T05:49:32.799Z,0.00
2018-11-14T05:50:32.835Z,0.00
2018-11-14T05:51:35.482Z,0.00
2018-11-14T05:52:32.745Z,0.00
2018-11-14T05:53:32.865Z,0.00
2018-11-14T05:54:32.725Z,0.00
2018-11-14T05:55:32.713Z,0.00
2018-11-14T05:56:32.712Z,0.00
2018-11-14T05:57:32.776Z,0.00
2018-11-14T05:58:33.092Z,0.00
2018-11-14T05:59:32.668Z,0.00
2018-11-14T06:00:32.657Z,0.00
2018-11-14T06:01:32.857Z,0.00
2018-11-14T06:02:32.693Z,0.00
2018-11-14T06:03:32.751Z,0.00
2018-11-14T06:04:32.629Z,0.00
2018-11-14T06:05:32.941Z,0.00
2018-11-14T06:06:32.594Z,0.00
2018-11-14T06:07:32.644Z,0.00
2018-11-14T06:08:32.573Z,0.00
2018-11-14T06:09:32.936Z,0.00
2018-11-14T06:10:32.553Z,0.00
2018-11-14T06:11:32.540Z,0.00
2018-11-14T06:12:32.958Z,0.00
2018-11-14T06:13:32.526Z,0.00
2018-11-14T06:14:32.509Z,0.00
2018-11-14T06:15:32.566Z,0.00
2018-11-14T06:16:32.487Z,0.00
2018-11-14T06:17:32.478Z,0.00
2018-11-14T06:18:32.466Z,0.00
2018-11-14T06:19:33.683Z,0.00
2018-11-14T06:20:32.446Z,0.00
2018-11-14T06:21:32.922Z,0.00
2018-11-14T06:22:32.424Z,0.00
2018-11-14T06:23:32.485Z,0.00
2018-11-14T06:24:32.447Z,0.00
2018-11-14T06:25:32.539Z,0.00
2018-11-14T06:26:32.933Z,0.00
2018-11-14T06:27:32.719Z,0.00
2018-11-14T06:28:32.514Z,0.00
2018-11-14T06:29:32.437Z,0.00
2018-11-14T06:30:32.409Z,0.00
2018-11-14T06:31:32.399Z,0.00
2018-11-14T06:32:32.385Z,0.00
2018-11-14T06:33:32.918Z,0.00
2018-11-14T06:34:32.351Z,0.00
2018-11-14T06:35:32.296Z,0.00
2018-11-14T06:36:32.277Z,0.00
2018-11-14T06:37:32.291Z,0.00
2018-11-14T06:38:32.300Z,0.00
2018-11-14T06:39:32.386Z,0.00
2018-11-14T06:40:32.632Z,0.00
2018-11-14T06:41:32.231Z,0.00
2018-11-14T06:42:32.213Z,0.00
2018-11-14T06:43:32.208Z,0.00
2018-11-14T06:44:32.196Z,0.00
2018-11-14T06:45:32.269Z,5.62
2018-11-14T06:46:32.170Z,5.62
2018-11-14T06:47:32.697Z,5.62
2018-11-14T06:48:32.152Z,5.62
2018-11-14T06:49:32.137Z,5.62
2018-11-14T06:50:32.128Z,5.62
2018-11-14T06:51:32.187Z,5.62
2018-11-14T06:52:33.123Z,5.62
2018-11-14T06:53:32.091Z,5.62
2018-11-14T06:54:33.067Z,5.62
2018-11-14T06:55:32.714Z,5.62
2018-11-14T06:56:32.715Z,5.62
2018-11-14T06:57:32.122Z,11.25
2018-11-14T06:58:32.055Z,11.25
2018-11-14T06:59:32.107Z,11.25
2018-11-14T07:00:32.022Z,11.25
2018-11-14T07:01:32.485Z,11.25
2018-11-14T07:02:38.334Z,11.25
2018-11-14T07:03:33.554Z,11.25
2018-11-14T07:04:32.002Z,11.25
2018-11-14T07:05:32.291Z,11.25
2018-11-14T07:06:32.395Z,11.25
2018-11-14T07:07:32.029Z,16.88
2018-11-14T07:08:32.296Z,16.88
2018-11-14T07:09:32.766Z,16.88
2018-11-14T07:10:32.016Z,16.88
2018-11-14T07:11:32.712Z,16.88
2018-11-14T07:12:31.897Z,16.88
2018-11-14T07:13:31.881Z,16.88
2018-11-14T07:14:31.889Z,22.50
2018-11-14T07:15:31.902Z,22.50
2018-11-14T07:16:31.850Z,22.50
2018-11-14T07:17:32.053Z,22.50
2018-11-14T07:18:31.829Z,22.50
2018-11-14T07:19:31.827Z,28.12
2018-11-14T07:20:32.700Z,28.12
2018-11-14T07:21:32.758Z,28.12
2018-11-14T07:22:31.788Z,28.12
2018-11-14T07:23:31.833Z,33.75
2018-11-14T07:24:31.775Z,33.75
2018-11-14T07:25:31.756Z,33.75
2018-11-14T07:26:31.754Z,33.75
2018-11-14T07:27:33.341Z,33.75
2018-11-14T07:28:31.724Z,33.75
2018-11-14T07:29:31.712Z,33.75
2018-11-14T07:30:31.701Z,33.75
2018-11-14T07:31:31.692Z,28.12
2018-11-14T07:32:31.704Z,28.12
2018-11-14T07:33:32.543Z,28.12
2018-11-14T07:34:31.659Z,28.12
2018-11-14T07:35:31.651Z,28.12
2018-11-14T07:36:31.638Z,22.50
2018-11-14T07:37:31.721Z,22.50
2018-11-14T07:38:31.618Z,22.50
2018-11-14T07:39:32.181Z,22.50
2018-11-14T07:40:31.600Z,28.12
2018-11-14T07:41:31.591Z,28.12
2018-11-14T07:42:31.574Z,28.12
2018-11-14T07:43:31.588Z,28.12
2018-11-14T07:44:31.556Z,33.75
2018-11-14T07:45:32.183Z,33.75
2018-11-14T07:46:31.533Z,39.38
2018-11-14T07:47:31.523Z,39.38
2018-11-14T07:48:31.512Z,39.38
2018-11-14T07:49:31.502Z,39.38
2018-11-14T07:50:31.489Z,39.38
2018-11-14T07:51:32.223Z,39.38
2018-11-14T07:52:31.763Z,45.00
2018-11-14T07:53:31.458Z,45.00
2018-11-14T07:54:31.497Z,45.00
2018-11-14T07:55:31.482Z,50.62
2018-11-14T07:56:31.567Z,50.62
2018-11-14T07:57:31.714Z,56.25
2018-11-14T07:58:31.466Z,50.62
2018-11-14T07:59:31.860Z,50.62
2018-11-14T08:00:31.470Z,56.25
2018-11-14T08:01:31.445Z,56.25
2018-11-14T08:02:31.421Z,56.25
2018-11-14T08:03:31.582Z,56.25
2018-11-14T08:04:31.355Z,56.25
2018-11-14T08:05:31.331Z,56.25
2018-11-14T08:06:32.671Z,56.25
2018-11-14T08:07:31.363Z,56.25
2018-11-14T08:08:31.389Z,56.25
2018-11-14T08:09:31.411Z,56.25
2018-11-14T08:10:31.278Z,56.25
2018-11-14T08:11:31.268Z,56.25
2018-11-14T08:12:31.255Z,56.25
2018-11-14T08:13:31.246Z,56.25
2018-11-14T08:14:31.235Z,56.25
2018-11-14T08:15:31.377Z,56.25
2018-11-14T08:16:31.225Z,50.62
2018-11-14T08:17:31.207Z,50.62
2018-11-14T08:18:31.277Z,50.62
2018-11-14T08:19:31.612Z,56.25
2018-11-14T08:20:31.171Z,56.25
2018-11-14T08:21:31.409Z,56.25
2018-11-14T08:22:31.151Z,61.88
2018-11-14T08:23:31.186Z,61.88
2018-11-14T08:24:31.129Z,61.88
2018-11-14T08:25:31.823Z,61.88
2018-11-14T08:26:31.383Z,61.88
2018-11-14T08:27:31.269Z,67.50
2018-11-14T08:28:31.096Z,67.50
2018-11-14T08:29:31.076Z,67.50
2018-11-14T08:30:31.277Z,67.50
2018-11-14T08:31:31.730Z,67.50
2018-11-14T08:32:31.043Z,67.50
2018-11-14T08:33:31.725Z,67.50
2018-11-14T08:34:31.024Z,67.50
2018-11-14T08:35:31.019Z,67.50
2018-11-14T08:36:31.799Z,73.12
2018-11-14T08:37:31.049Z,73.12
2018-11-14T08:38:31.067Z,73.12
2018-11-14T08:39:31.372Z,73.12
2018-11-14T08:40:30.989Z,73.12
2018-11-14T08:41:31.169Z,78.75
2018-11-14T08:42:31.149Z,78.75
2018-11-14T08:43:31.900Z,78.75
2018-11-14T08:44:31.007Z,78.75
2018-11-14T08:45:31.190Z,78.75
2018-11-14T08:46:32.320Z,78.75
2018-11-14T08:47:31.282Z,84.38
2018-11-14T08:48:31.053Z,84.38
2018-11-14T08:49:31.092Z,84.38
2018-11-14T08:50:31.379Z,84.38
2018-11-14T08:51:31.573Z,84.38
2018-11-14T08:52:30.963Z,84.38
2018-11-14T08:53:32.304Z,84.38
2018-11-14T08:54:30.811Z,84.38
2018-11-14T08:55:30.849Z,90.00
2018-11-14T08:56:30.800Z,90.00
2018-11-14T08:57:30.910Z,90.00
2018-11-14T08:58:30.774Z,95.62
2018-11-14T08:59:30.759Z,95.62
2018-11-14T09:00:31.121Z,95.62
2018-11-14T09:01:30.814Z,101.25
2018-11-14T09:02:30.851Z,101.25
2018-11-14T09:03:30.835Z,101.25
2018-11-14T09:04:31.699Z,101.25
2018-11-14T09:05:30.695Z,101.25
2018-11-14T09:06:30.801Z,101.25
2018-11-14T09:07:31.175Z,101.25
2018-11-14T09:08:30.664Z,101.25
2018-11-14T09:09:30.798Z,106.88
2018-11-14T09:10:30.645Z,101.25
2018-11-14T09:11:30.637Z,106.88
2018-11-14T09:12:30.700Z,101.25
2018-11-14T09:13:30.631Z,101.25
2018-11-14T09:14:30.944Z,101.25
2018-11-14T09:15:30.666Z,101.25
2018-11-14T09:16:30.590Z,101.25
2018-11-14T09:17:30.574Z,101.25
2018-11-14T09:18:31.321Z,101.25
2018-11-14T09:19:30.659Z,101.25
2018-11-14T09:20:30.562Z,101.25
2018-11-14T09:21:31.796Z,101.25
2018-11-14T09:22:30.589Z,101.25
2018-11-14T09:23:30.595Z,106.88
2018-11-14T09:24:30.623Z,106.88
2018-11-14T09:25:30.716Z,106.88
2018-11-14T09:26:30.554Z,106.88
2018-11-14T09:27:30.732Z,106.88
2018-11-14T09:28:30.617Z,106.88
2018-11-14T09:29:30.505Z,101.25
2018-11-14T09:30:30.439Z,106.88
2018-11-14T09:31:30.422Z,112.50
2018-11-14T09:32:30.448Z,101.25
2018-11-14T09:33:30.442Z,106.88
2018-11-14T09:34:30.447Z,112.50
2018-11-14T09:35:30.382Z,106.88
2018-11-14T09:36:30.571Z,106.88
2018-11-14T09:37:30.435Z,95.62
2018-11-14T09:38:30.363Z,95.62
2018-11-14T09:39:30.616Z,95.62
2018-11-14T09:40:31.658Z,95.62
2018-11-14T09:41:30.478Z,95.62
2018-11-14T09:42:32.161Z,95.62
2018-11-14T09:43:30.516Z,101.25
2018-11-14T09:44:31.433Z,95.62
2018-11-14T09:45:31.026Z,95.62
2018-11-14T09:46:30.795Z,101.25
2018-11-14T09:47:30.604Z,112.50
2018-11-14T09:48:30.327Z,95.62
2018-11-14T09:49:30.547Z,95.62
2018-11-14T09:50:30.481Z,101.25
2018-11-14T09:51:30.546Z,101.25
2018-11-14T09:52:30.208Z,101.25
2018-11-14T09:53:30.201Z,106.88
2018-11-14T09:54:30.751Z,135.00
2018-11-14T09:55:30.211Z,135.00
2018-11-14T09:56:30.296Z,118.12
2018-11-14T09:57:30.436Z,106.88
2018-11-14T09:58:30.792Z,112.50
2018-11-14T09:59:30.193Z,106.88
2018-11-14T10:00:30.364Z,112.50
2018-11-14T10:01:30.785Z,135.00
2018-11-14T10:02:30.318Z,112.50
2018-11-14T10:03:30.737Z,112.50
2018-11-14T10:04:30.766Z,112.50
2018-11-14T10:05:30.572Z,118.12
2018-11-14T10:06:30.228Z,135.00
2018-11-14T10:07:31.175Z,151.88
2018-11-14T10:08:30.709Z,151.88
2018-11-14T10:09:30.404Z,151.88
2018-11-14T10:10:30.145Z,151.88
2018-11-14T10:11:30.837Z,151.88
2018-11-14T10:12:30.135Z,157.50
2018-11-14T10:13:30.320Z,151.88
2018-11-14T10:14:30.098Z,163.12
2018-11-14T10:15:30.444Z,157.50
2018-11-14T10:16:30.286Z,157.50
2018-11-14T10:17:30.049Z,163.12
2018-11-14T10:18:30.523Z,163.12
2018-11-14T10:19:30.293Z,168.75
2018-11-14T10:20:30.697Z,168.75
2018-11-14T10:21:31.683Z,157.50
2018-11-14T10:22:30.690Z,135.00
2018-11-14T10:23:29.885Z,140.62
2018-11-14T10:24:29.873Z,146.25
2018-11-14T10:25:30.405Z,146.25
2018-11-14T10:26:29.984Z,140.62
2018-11-14T10:27:30.363Z,129.38
2018-11-14T10:28:29.971Z,123.75
2018-11-14T10:29:30.178Z,129.38
2018-11-14T10:30:30.332Z,135.00
2018-11-14T10:31:30.259Z,123.75
2018-11-14T10:32:30.653Z,118.12
2018-11-14T10:33:30.133Z,146.25
2018-11-14T10:34:29.870Z,151.88
2018-11-14T10:35:29.807Z,146.25
2018-11-14T10:36:29.828Z,146.25
2018-11-14T10:37:29.767Z,118.12
2018-11-14T10:38:30.354Z,118.12
2018-11-14T10:39:30.492Z,129.38
2018-11-14T10:40:30.890Z,140.62
2018-11-14T10:41:29.851Z,129.38
2018-11-14T10:42:29.978Z,129.38
2018-11-14T10:43:29.826Z,146.25
2018-11-14T10:44:29.945Z,146.25
2018-11-14T10:45:30.421Z,151.88
2018-11-14T10:46:29.708Z,146.25
2018-11-14T10:47:29.637Z,140.62
2018-11-14T10:48:29.761Z,151.88
2018-11-14T10:49:29.752Z,157.50
2018-11-14T10:50:29.784Z,168.75
2018-11-14T10:51:30.785Z,168.75
2018-11-14T10:52:29.603Z,168.75
2018-11-14T10:53:29.574Z,174.38
2018-11-14T10:54:29.595Z,180.00
2018-11-14T10:55:29.764Z,180.00
2018-11-14T10:56:29.699Z,168.75
2018-11-14T10:57:30.649Z,180.00
2018-11-14T10:58:30.116Z,180.00
2018-11-14T10:59:29.636Z,168.75
2018-11-14T11:00:29.571Z,174.38
2018-11-14T11:01:29.626Z,174.38
2018-11-14T11:02:31.397Z,185.62
2018-11-14T11:03:30.212Z,191.25
2018-11-14T11:04:30.573Z,185.62
2018-11-14T11:05:29.652Z,174.38
2018-11-14T11:06:29.425Z,185.62
2018-11-14T11:07:30.649Z,163.12
2018-11-14T11:08:29.527Z,213.75
2018-11-14T11:09:29.875Z,191.25
2018-11-14T11:10:29.404Z,202.50
2018-11-14T11:11:29.701Z,225.00
2018-11-14T11:12:29.549Z,213.75
2018-11-14T11:13:29.378Z,236.25
2018-11-14T11:14:29.342Z,247.50
2018-11-14T11:15:29.732Z,236.25
2018-11-14T11:16:29.826Z,230.62
2018-11-14T11:17:29.311Z,196.88
2018-11-14T11:18:29.296Z,202.50
2018-11-14T11:19:29.499Z,225.00
2018-11-14T11:20:29.328Z,275.62
2018-11-14T11:21:29.625Z,275.62
2018-11-14T11:22:29.266Z,247.50
2018-11-14T11:23:29.935Z,219.38
2018-11-14T11:24:29.293Z,241.88
2018-11-14T11:25:29.375Z,236.25
2018-11-14T11:26:29.387Z,275.62
2018-11-14T11:27:29.374Z,270.00
2018-11-14T11:28:29.789Z,253.12
2018-11-14T11:29:29.525Z,253.12
2018-11-14T11:30:29.682Z,264.38
2018-11-14T11:31:29.881Z,180.00
2018-11-14T11:32:29.189Z,180.00
2018-11-14T11:33:29.493Z,236.25
2018-11-14T11:34:29.366Z,286.88
2018-11-14T11:35:29.298Z,1479.38
2018-11-14T11:36:29.168Z,1788.75
2018-11-14T11:37:29.583Z,1850.62
2018-11-14T11:38:29.213Z,1805.62
2018-11-14T11:39:29.586Z,1805.62
2018-11-14T11:40:29.064Z,1755.00
2018-11-14T11:41:29.144Z,1710.00
2018-11-14T11:42:29.234Z,1614.38
2018-11-14T11:43:30.060Z,1749.38
2018-11-14T11:44:29.770Z,1794.38
2018-11-14T11:45:29.687Z,1766.25
2018-11-14T11:46:29.047Z,1850.62
2018-11-14T11:47:29.773Z,1811.25
2018-11-14T11:48:28.987Z,1805.62
2018-11-14T11:49:29.021Z,1766.25
2018-11-14T11:50:29.003Z,1833.75
2018-11-14T11:51:30.750Z,1805.62
2018-11-14T11:52:29.050Z,1698.75
2018-11-14T11:53:29.700Z,1771.88
2018-11-14T11:54:29.219Z,1850.62
2018-11-14T11:55:29.373Z,1850.62
2018-11-14T11:56:29.934Z,1845.00
2018-11-14T11:57:31.207Z,1867.50
2018-11-14T11:58:29.351Z,1867.50
2018-11-14T11:59:29.079Z,1850.62
2018-11-14T12:00:29.282Z,1805.62
2018-11-14T12:01:28.893Z,1867.50
2018-11-14T12:02:28.929Z,1361.25
2018-11-14T12:03:29.413Z,1850.62
2018-11-14T12:04:28.874Z,1788.75
2018-11-14T12:05:29.325Z,1743.75
2018-11-14T12:06:29.169Z,1794.38
2018-11-14T12:07:28.797Z,1721.25
2018-11-14T12:08:29.472Z,1642.50
2018-11-14T12:09:29.958Z,1715.62
2018-11-14T12:10:28.909Z,1743.75
2018-11-14T12:11:28.824Z,1777.50
2018-11-14T12:12:29.262Z,1749.38
2018-11-14T12:13:28.743Z,1811.25
2018-11-14T12:14:28.727Z,1861.88
2018-11-14T12:15:29.286Z,1895.62
2018-11-14T12:16:44.901Z,1996.88
2018-11-14T12:17:28.812Z,2086.88
2018-11-14T12:18:29.234Z,2334.38
2018-11-14T12:19:28.837Z,2317.50
2018-11-14T12:20:28.844Z,1811.25
2018-11-14T12:21:28.953Z,1141.88
2018-11-14T12:22:28.852Z,585.00
2018-11-14T12:23:28.780Z,281.25
2018-11-14T12:24:28.748Z,230.62
2018-11-14T12:25:29.772Z,202.50
2018-11-14T12:26:28.639Z,191.25
2018-11-14T12:27:29.575Z,185.62
2018-11-14T12:28:28.755Z,180.00
2018-11-14T12:29:29.303Z,174.38
2018-11-14T12:30:30.123Z,168.75
2018-11-14T12:31:28.602Z,163.12
2018-11-14T12:32:29.001Z,163.12
2018-11-14T12:33:29.264Z,157.50
2018-11-14T12:34:28.654Z,151.88
2018-11-14T12:35:28.602Z,151.88
2018-11-14T12:36:28.850Z,146.25
2018-11-14T12:37:28.562Z,146.25
2018-11-14T12:38:28.824Z,146.25
2018-11-14T12:39:29.515Z,146.25
2018-11-14T12:40:28.578Z,140.62
2018-11-14T12:41:28.479Z,140.62
2018-11-14T12:42:28.586Z,140.62
2018-11-14T12:43:29.009Z,140.62
2018-11-14T12:44:28.537Z,140.62
2018-11-14T12:45:28.900Z,135.00
2018-11-14T12:46:28.896Z,135.00
2018-11-14T12:47:28.479Z,135.00
2018-11-14T12:48:29.392Z,135.00
2018-11-14T12:49:28.466Z,135.00
2018-11-14T12:50:28.506Z,135.00
2018-11-14T12:51:29.194Z,135.00
2018-11-14T12:52:28.513Z,135.00
2018-11-14T12:53:29.763Z,135.00
2018-11-14T12:54:28.386Z,135.00
2018-11-14T12:55:28.557Z,129.38
2018-11-14T12:56:28.397Z,129.38
2018-11-14T12:57:28.557Z,129.38
2018-11-14T12:58:28.422Z,129.38
2018-11-14T12:59:28.564Z,129.38
2018-11-14T13:00:28.778Z,129.38